Cartier, Canada
Current Conditions -  °F | °C
As of 7:00 AM on Sunday 23 Nov 2014 (Local Time) from CYSB Reporting Station
Drizzle Drizzle  
Wind Chill: 29°   Ceiling: 100
Heat Index: 36°   Visibility: 0.25mi
Dew Point: 34°   Wind: 8mph
Humidity: 93%   Direction: 190°S
Pressure: 29.85"   Gusts: NA
Location:  46.7°N, 81.55°W
Report Text: CYSB 231200Z 19007KT 1/4SM R22/1400FT/N -DZ FG VV001 02/01 A2985 RMK FG8 SLP121
Loading
Personal Weather Stations






























Interactive Weather Map New forecast layout! Learn more

10-Day Weather Forecast

Advertisements
Track Severe Weather on mobile